sensor_id;sensor_type;location;lat;lon;timestamp;pressure;altitude;pressure_sealevel;temperature;humidity
4570;BME280;2297;51.442;6.996;2023-03-19T00:01:46;99864.69;;;13.71;47.77
4570;BME280;2297;51.442;6.996;2023-03-19T00:04:12;99866.53;;;13.69;47.82
4570;BME280;2297;51.442;6.996;2023-03-19T00:06:41;99864.00;;;13.66;47.96
4570;BME280;2297;51.442;6.996;2023-03-19T00:09:08;99866.03;;;13.82;47.56
4570;BME280;2297;51.442;6.996;2023-03-19T00:11:35;99852.38;;;13.91;47.76
4570;BME280;2297;51.442;6.996;2023-03-19T00:14:02;99860.50;;;14.08;47.31
4570;BME280;2297;51.442;6.996;2023-03-19T00:16:28;99859.44;;;14.12;46.87
4570;BME280;2297;51.442;6.996;2023-03-19T00:18:56;99870.31;;;14.06;46.80
4570;BME280;2297;51.442;6.996;2023-03-19T00:21:23;99880.81;;;14.09;47.20
4570;BME280;2297;51.442;6.996;2023-03-19T00:23:50;99881.31;;;13.97;47.13
4570;BME280;2297;51.442;6.996;2023-03-19T00:26:17;99882.91;;;14.01;46.89
4570;BME280;2297;51.442;6.996;2023-03-19T00:28:43;99900.84;;;13.74;47.43
4570;BME280;2297;51.442;6.996;2023-03-19T00:31:12;99881.84;;;13.85;47.97
4570;BME280;2297;51.442;6.996;2023-03-19T00:33:39;99895.53;;;13.52;49.14
4570;BME280;2297;51.442;6.996;2023-03-19T00:36:09;99897.38;;;13.72;48.62
4570;BME280;2297;51.442;6.996;2023-03-19T00:38:36;99895.78;;;13.68;48.78
4570;BME280;2297;51.442;6.996;2023-03-19T00:41:03;99893.19;;;13.66;48.83
4570;BME280;2297;51.442;6.996;2023-03-19T00:43:31;99889.25;;;13.76;48.48
4570;BME280;2297;51.442;6.996;2023-03-19T00:45:58;99885.38;;;13.63;49.27
4570;BME280;2297;51.442;6.996;2023-03-19T00:48:25;99880.75;;;13.68;49.14
4570;BME280;2297;51.442;6.996;2023-03-19T00:50:52;99871.34;;;13.82;49.14
4570;BME280;2297;51.442;6.996;2023-03-19T00:53:20;99871.28;;;13.83;49.29
4570;BME280;2297;51.442;6.996;2023-03-19T00:55:47;99871.72;;;13.72;49.47
4570;BME280;2297;51.442;6.996;2023-03-19T00:58:13;99882.59;;;13.66;49.30
4570;BME280;2297;51.442;6.996;2023-03-19T01:00:40;99872.13;;;13.84;48.79
4570;BME280;2297;51.442;6.996;2023-03-19T01:03:06;99876.75;;;13.78;48.91
4570;BME280;2297;51.442;6.996;2023-03-19T01:05:34;99877.75;;;13.76;49.20
4570;BME280;2297;51.442;6.996;2023-03-19T01:08:01;99879.00;;;13.67;49.23
4570;BME280;2297;51.442;6.996;2023-03-19T01:10:32;99878.63;;;13.76;49.64
4570;BME280;2297;51.442;6.996;2023-03-19T01:12:59;99883.41;;;13.68;49.89
4570;BME280;2297;51.442;6.996;2023-03-19T01:15:25;99885.41;;;13.61;49.90
4570;BME280;2297;51.442;6.996;2023-03-19T01:17:52;99877.50;;;13.60;49.44
4570;BME280;2297;51.442;6.996;2023-03-19T01:20:19;99877.66;;;13.57;49.45
4570;BME280;2297;51.442;6.996;2023-03-19T01:22:48;99876.31;;;13.23;49.94
4570;BME280;2297;51.442;6.996;2023-03-19T01:25:15;99872.56;;;13.51;49.50
4570;BME280;2297;51.442;6.996;2023-03-19T01:27:43;99875.44;;;13.46;49.18
4570;BME280;2297;51.442;6.996;2023-03-19T01:30:10;99878.94;;;13.46;49.18
4570;BME280;2297;51.442;6.996;2023-03-19T01:32:37;99876.19;;;13.50;49.13
4570;BME280;2297;51.442;6.996;2023-03-19T01:35:04;99872.38;;;13.33;49.96
4570;BME280;2297;51.442;6.996;2023-03-19T01:37:31;99873.22;;;13.35;49.71
4570;BME280;2297;51.442;6.996;2023-03-19T01:39:58;99873.22;;;13.35;49.44
4570;BME280;2297;51.442;6.996;2023-03-19T01:42:25;99870.56;;;13.35;49.56
4570;BME280;2297;51.442;6.996;2023-03-19T01:44:53;99871.47;;;13.34;49.02
4570;BME280;2297;51.442;6.996;2023-03-19T01:47:27;99868.25;;;13.48;48.83
4570;BME280;2297;51.442;6.996;2023-03-19T01:49:56;99861.97;;;13.51;48.39
4570;BME280;2297;51.442;6.996;2023-03-19T01:52:26;99863.69;;;13.52;48.43
4570;BME280;2297;51.442;6.996;2023-03-19T01:54:55;99857.53;;;13.51;48.47
4570;BME280;2297;51.442;6.996;2023-03-19T01:57:23;99847.66;;;13.55;48.42
4570;BME280;2297;51.442;6.996;2023-03-19T01:59:53;99846.63;;;13.59;48.36
4570;BME280;2297;51.442;6.996;2023-03-19T02:02:25;99846.44;;;13.63;48.01
4570;BME280;2297;51.442;6.996;2023-03-19T02:04:57;99859.25;;;13.74;47.59
4570;BME280;2297;51.442;6.996;2023-03-19T02:07:24;99858.63;;;13.68;47.74
4570;BME280;2297;51.442;6.996;2023-03-19T02:09:52;99852.66;;;13.62;47.74
4570;BME280;2297;51.442;6.996;2023-03-19T02:12:19;99855.44;;;13.59;48.01
4570;BME280;2297;51.442;6.996;2023-03-19T02:14:46;99848.09;;;13.66;47.63
4570;BME280;2297;51.442;6.996;2023-03-19T02:17:14;99853.09;;;13.74;47.47
4570;BME280;2297;51.442;6.996;2023-03-19T02:19:47;99849.38;;;13.78;47.37
4570;BME280;2297;51.442;6.996;2023-03-19T02:22:17;99857.78;;;13.67;47.61
4570;BME280;2297;51.442;6.996;2023-03-19T02:24:49;99850.88;;;13.63;47.52
4570;BME280;2297;51.442;6.996;2023-03-19T02:27:19;99853.00;;;13.75;46.99
4570;BME280;2297;51.442;6.996;2023-03-19T02:29:45;99845.81;;;13.79;47.10
4570;BME280;2297;51.442;6.996;2023-03-19T02:32:12;99850.13;;;13.82;46.89
4570;BME280;2297;51.442;6.996;2023-03-19T02:34:40;99852.72;;;13.61;46.80
4570;BME280;2297;51.442;6.996;2023-03-19T02:37:11;99843.38;;;13.73;46.66
4570;BME280;2297;51.442;6.996;2023-03-19T02:39:49;99849.38;;;13.78;46.71
4570;BME280;2297;51.442;6.996;2023-03-19T02:42:19;99849.38;;;13.78;46.49
4570;BME280;2297;51.442;6.996;2023-03-19T02:44:47;99847.53;;;13.58;46.61
4570;BME280;2297;51.442;6.996;2023-03-19T02:47:14;99847.91;;;13.49;46.37
4570;BME280;2297;51.442;6.996;2023-03-19T02:49:41;99838.22;;;13.47;46.33
4570;BME280;2297;51.442;6.996;2023-03-19T02:52:08;99844.59;;;13.66;46.14
4570;BME280;2297;51.442;6.996;2023-03-19T02:54:35;99841.88;;;13.45;46.40
4570;BME280;2297;51.442;6.996;2023-03-19T02:57:01;99838.91;;;13.53;45.80
4570;BME280;2297;51.442;6.996;2023-03-19T02:59:29;99845.13;;;13.52;46.14
4570;BME280;2297;51.442;6.996;2023-03-19T03:01:56;99845.81;;;13.57;45.89
4570;BME280;2297;51.442;6.996;2023-03-19T03:04:23;99845.44;;;13.44;45.99
4570;BME280;2297;51.442;6.996;2023-03-19T03:06:51;99849.56;;;13.29;46.01
4570;BME280;2297;51.442;6.996;2023-03-19T03:09:17;99846.69;;;13.35;45.95
4570;BME280;2297;51.442;6.996;2023-03-19T03:11:44;99842.06;;;13.40;46.14
4570;BME280;2297;51.442;6.996;2023-03-19T03:14:11;99848.88;;;13.24;46.23
4570;BME280;2297;51.442;6.996;2023-03-19T03:16:39;99845.41;;;13.22;46.45
4570;BME280;2297;51.442;6.996;2023-03-19T03:19:05;99846.41;;;13.41;46.45
4570;BME280;2297;51.442;6.996;2023-03-19T03:21:32;99845.88;;;13.33;46.15
4570;BME280;2297;51.442;6.996;2023-03-19T03:23:59;99846.41;;;13.41;46.38
4570;BME280;2297;51.442;6.996;2023-03-19T03:26:25;99857.66;;;13.26;46.57
4570;BME280;2297;51.442;6.996;2023-03-19T03:28:52;99858.69;;;12.98;47.19
4570;BME280;2297;51.442;6.996;2023-03-19T03:31:19;99850.94;;;13.16;46.92
4570;BME280;2297;51.442;6.996;2023-03-19T03:33:47;99858.44;;;13.04;47.08
4570;BME280;2297;51.442;6.996;2023-03-19T03:36:14;99856.03;;;13.22;47.00
4570;BME280;2297;51.442;6.996;2023-03-19T03:38:41;99864.69;;;13.03;47.08
4570;BME280;2297;51.442;6.996;2023-03-19T03:41:08;99866.88;;;12.92;47.36
4570;BME280;2297;51.442;6.996;2023-03-19T03:43:35;99869.44;;;13.17;46.92
4570;BME280;2297;51.442;6.996;2023-03-19T03:46:02;99864.81;;;12.51;48.43
4570;BME280;2297;51.442;6.996;2023-03-19T03:48:28;99859.03;;;12.89;47.34
4570;BME280;2297;51.442;6.996;2023-03-19T03:50:56;99859.13;;;12.86;48.01
4570;BME280;2297;51.442;6.996;2023-03-19T03:53:23;99866.50;;;12.77;47.79
4570;BME280;2297;51.442;6.996;2023-03-19T03:55:50;99864.84;;;12.75;47.96
4570;BME280;2297;51.442;6.996;2023-03-19T03:58:16;99870.06;;;12.76;48.09
4570;BME280;2297;51.442;6.996;2023-03-19T04:00:43;99864.44;;;12.86;47.93
4570;BME280;2297;51.442;6.996;2023-03-19T04:03:10;99869.84;;;12.83;48.26
4570;BME280;2297;51.442;6.996;2023-03-19T04:05:37;99873.56;;;12.78;48.34
4570;BME280;2297;51.442;6.996;2023-03-19T04:08:06;99872.50;;;12.83;48.09
4570;BME280;2297;51.442;6.996;2023-03-19T04:10:33;99875.03;;;12.86;48.18
4570;BME280;2297;51.442;6.996;2023-03-19T04:13:01;99877.41;;;12.93;48.16
4570;BME280;2297;51.442;6.996;2023-03-19T04:15:27;99876.44;;;12.96;47.74
4570;BME280;2297;51.442;6.996;2023-03-19T04:17:54;99880.69;;;12.76;48.38
4570;BME280;2297;51.442;6.996;2023-03-19T04:20:20;99882.72;;;12.44;49.00
4570;BME280;2297;51.442;6.996;2023-03-19T04:22:47;99884.28;;;12.75;48.57
4570;BME280;2297;51.442;6.996;2023-03-19T04:25:16;99882.75;;;12.68;49.07
4570;BME280;2297;51.442;6.996;2023-03-19T04:27:43;99895.03;;;12.71;48.92
4570;BME280;2297;51.442;6.996;2023-03-19T04:30:10;99890.25;;;12.80;48.59
4570;BME280;2297;51.442;6.996;2023-03-19T04:32:37;99899.16;;;13.03;48.22
4570;BME280;2297;51.442;6.996;2023-03-19T04:35:05;99906.19;;;12.79;49.03
4570;BME280;2297;51.442;6.996;2023-03-19T04:37:32;99907.41;;;12.70;49.64
4570;BME280;2297;51.442;6.996;2023-03-19T04:39:59;99907.03;;;12.81;49.45
4570;BME280;2297;51.442;6.996;2023-03-19T04:42:27;99911.13;;;12.12;51.31
4570;BME280;2297;51.442;6.996;2023-03-19T04:44:54;99901.66;;;12.83;49.51
4570;BME280;2297;51.442;6.996;2023-03-19T04:47:20;99906.78;;;12.63;50.04
4570;BME280;2297;51.442;6.996;2023-03-19T04:49:47;99910.84;;;12.72;49.86
4570;BME280;2297;51.442;6.996;2023-03-19T04:52:13;99917.38;;;12.87;49.64
4570;BME280;2297;51.442;6.996;2023-03-19T04:54:40;99910.88;;;12.47;50.33
4570;BME280;2297;51.442;6.996;2023-03-19T04:57:07;99916.72;;;12.32;51.07
4570;BME280;2297;51.442;6.996;2023-03-19T04:59:35;99923.97;;;12.52;50.65
4570;BME280;2297;51.442;6.996;2023-03-19T05:02:01;99915.31;;;12.46;50.95
4570;BME280;2297;51.442;6.996;2023-03-19T05:04:28;99917.63;;;12.56;51.21
4570;BME280;2297;51.442;6.996;2023-03-19T05:06:54;99917.72;;;12.53;50.97
4570;BME280;2297;51.442;6.996;2023-03-19T05:09:22;99915.81;;;12.81;50.14
4570;BME280;2297;51.442;6.996;2023-03-19T05:11:49;99916.88;;;12.52;50.96
4570;BME280;2297;51.442;6.996;2023-03-19T05:14:16;99920.16;;;12.59;50.74
4570;BME280;2297;51.442;6.996;2023-03-19T05:16:43;99911.44;;;12.80;50.34
4570;BME280;2297;51.442;6.996;2023-03-19T05:19:10;99912.78;;;12.92;50.13
4570;BME280;2297;51.442;6.996;2023-03-19T05:21:37;99920.91;;;12.88;50.04
4570;BME280;2297;51.442;6.996;2023-03-19T05:24:05;99920.03;;;12.62;50.76
4570;BME280;2297;51.442;6.996;2023-03-19T05:26:31;99927.94;;;12.89;50.05
4570;BME280;2297;51.442;6.996;2023-03-19T05:28:58;99923.97;;;13.01;49.66
4570;BME280;2297;51.442;6.996;2023-03-19T05:31:25;99925.31;;;12.87;49.99
4570;BME280;2297;51.442;6.996;2023-03-19T05:33:53;99934.16;;;12.88;50.19
4570;BME280;2297;51.442;6.996;2023-03-19T05:36:19;99932.78;;;13.01;49.84
4570;BME280;2297;51.442;6.996;2023-03-19T05:38:46;99934.94;;;12.66;51.28
4570;BME280;2297;51.442;6.996;2023-03-19T05:41:12;99941.25;;;12.62;52.32
4570;BME280;2297;51.442;6.996;2023-03-19T05:43:39;99929.97;;;12.80;52.17
4570;BME280;2297;51.442;6.996;2023-03-19T05:46:05;99937.25;;;12.75;52.81
4570;BME280;2297;51.442;6.996;2023-03-19T05:48:33;99933.13;;;12.41;53.52
4570;BME280;2297;51.442;6.996;2023-03-19T05:51:01;99938.81;;;12.81;53.38
4570;BME280;2297;51.442;6.996;2023-03-19T05:53:27;99943.41;;;12.51;54.39
4570;BME280;2297;51.442;6.996;2023-03-19T05:55:54;99945.84;;;12.82;53.85
4570;BME280;2297;51.442;6.996;2023-03-19T05:58:21;99949.56;;;12.51;54.25
4570;BME280;2297;51.442;6.996;2023-03-19T06:00:47;99949.50;;;12.53;54.44
4570;BME280;2297;51.442;6.996;2023-03-19T06:03:15;99946.44;;;12.65;54.13
4570;BME280;2297;51.442;6.996;2023-03-19T06:05:41;99946.50;;;12.89;53.94
4570;BME280;2297;51.442;6.996;2023-03-19T06:08:09;99951.28;;;13.03;53.74
4570;BME280;2297;51.442;6.996;2023-03-19T06:10:36;99958.94;;;13.10;53.13
4570;BME280;2297;51.442;6.996;2023-03-19T06:13:02;99954.78;;;12.79;53.34
4570;BME280;2297;51.442;6.996;2023-03-19T06:15:29;99959.50;;;12.95;52.88
4570;BME280;2297;51.442;6.996;2023-03-19T06:17:56;99964.16;;;12.63;53.51
4570;BME280;2297;51.442;6.996;2023-03-19T06:20:23;99968.47;;;12.40;54.94
4570;BME280;2297;51.442;6.996;2023-03-19T06:22:50;99972.66;;;12.21;56.27
4570;BME280;2297;51.442;6.996;2023-03-19T06:25:18;99973.31;;;12.27;56.93
4570;BME280;2297;51.442;6.996;2023-03-19T06:27:45;99972.66;;;12.21;56.98
4570;BME280;2297;51.442;6.996;2023-03-19T06:30:13;99983.09;;;12.52;56.42
4570;BME280;2297;51.442;6.996;2023-03-19T06:32:39;99980.44;;;12.52;56.50
4570;BME280;2297;51.442;6.996;2023-03-19T06:35:07;99975.53;;;12.67;56.12
4570;BME280;2297;51.442;6.996;2023-03-19T06:37:34;99978.44;;;12.59;56.62
4570;BME280;2297;51.442;6.996;2023-03-19T06:40:02;99980.38;;;12.79;55.87
4570;BME280;2297;51.442;6.996;2023-03-19T06:42:30;99974.88;;;12.85;55.69
4570;BME280;2297;51.442;6.996;2023-03-19T06:44:57;99980.72;;;12.95;55.55
4570;BME280;2297;51.442;6.996;2023-03-19T06:47:23;99986.63;;;13.03;55.04
4570;BME280;2297;51.442;6.996;2023-03-19T06:49:50;99991.56;;;12.89;55.54
4570;BME280;2297;51.442;6.996;2023-03-19T06:52:17;99984.69;;;13.07;54.83
4570;BME280;2297;51.442;6.996;2023-03-19T06:54:44;99989.22;;;13.05;54.94
4570;BME280;2297;51.442;6.996;2023-03-19T06:57:10;99990.75;;;13.10;54.67
4570;BME280;2297;51.442;6.996;2023-03-19T06:59:39;99991.09;;;13.01;55.12
4570;BME280;2297;51.442;6.996;2023-03-19T07:02:06;99993.16;;;12.93;55.12
4570;BME280;2297;51.442;6.996;2023-03-19T07:04:33;99996.66;;;12.93;55.16
4570;BME280;2297;51.442;6.996;2023-03-19T07:06:59;99997.59;;;12.92;54.88
4570;BME280;2297;51.442;6.996;2023-03-19T07:09:27;100000.63;;;12.81;55.22
4570;BME280;2297;51.442;6.996;2023-03-19T07:11:53;100006.25;;;12.72;55.22
4570;BME280;2297;51.442;6.996;2023-03-19T07:14:20;100005.06;;;12.81;55.27
4570;BME280;2297;51.442;6.996;2023-03-19T07:16:49;100017.75;;;12.71;55.18
4570;BME280;2297;51.442;6.996;2023-03-19T07:19:16;100019.09;;;12.58;55.75
4570;BME280;2297;51.442;6.996;2023-03-19T07:21:42;100020.28;;;12.49;55.87
4570;BME280;2297;51.442;6.996;2023-03-19T07:24:09;100018.25;;;12.83;54.95
4570;BME280;2297;51.442;6.996;2023-03-19T07:26:36;100009.47;;;12.80;55.16
4570;BME280;2297;51.442;6.996;2023-03-19T07:29:02;100008.19;;;12.92;54.67
4570;BME280;2297;51.442;6.996;2023-03-19T07:31:29;100016.19;;;12.91;54.93
4570;BME280;2297;51.442;6.996;2023-03-19T07:33:57;100018.75;;;12.94;54.27
4570;BME280;2297;51.442;6.996;2023-03-19T07:36:24;100030.47;;;12.87;54.30
4570;BME280;2297;51.442;6.996;2023-03-19T07:38:51;100025.44;;;12.79;54.64
4570;BME280;2297;51.442;6.996;2023-03-19T07:41:17;100027.94;;;12.84;54.32
4570;BME280;2297;51.442;6.996;2023-03-19T07:43:44;100032.34;;;12.85;54.53
4570;BME280;2297;51.442;6.996;2023-03-19T07:46:10;100028.97;;;13.05;53.78
4570;BME280;2297;51.442;6.996;2023-03-19T07:48:38;100027.50;;;12.96;54.16
4570;BME280;2297;51.442;6.996;2023-03-19T07:51:06;100030.59;;;13.09;54.16
4570;BME280;2297;51.442;6.996;2023-03-19T07:53:32;100031.69;;;13.03;54.00
4570;BME280;2297;51.442;6.996;2023-03-19T07:55:59;100036.47;;;13.17;53.58
4570;BME280;2297;51.442;6.996;2023-03-19T07:58:26;100031.44;;;13.09;53.96
4570;BME280;2297;51.442;6.996;2023-03-19T08:00:53;100036.53;;;13.16;53.83
4570;BME280;2297;51.442;6.996;2023-03-19T08:03:20;100040.00;;;12.92;54.42
4570;BME280;2297;51.442;6.996;2023-03-19T08:05:48;100029.97;;;13.27;53.55
4570;BME280;2297;51.442;6.996;2023-03-19T08:08:16;100031.00;;;12.96;54.46
4570;BME280;2297;51.442;6.996;2023-03-19T08:10:43;100040.22;;;13.11;54.13
4570;BME280;2297;51.442;6.996;2023-03-19T08:13:11;100050.56;;;12.94;54.07
4570;BME280;2297;51.442;6.996;2023-03-19T08:15:39;100049.63;;;12.95;54.48
4570;BME280;2297;51.442;6.996;2023-03-19T08:18:05;100053.28;;;12.91;54.50
4570;BME280;2297;51.442;6.996;2023-03-19T08:20:32;100056.44;;;13.02;54.03
4570;BME280;2297;51.442;6.996;2023-03-19T08:22:58;100060.84;;;12.76;54.74
4570;BME280;2297;51.442;6.996;2023-03-19T08:25:26;100055.66;;;12.73;54.96
4570;BME280;2297;51.442;6.996;2023-03-19T08:27:56;100063.38;;;13.06;54.24
4570;BME280;2297;51.442;6.996;2023-03-19T08:30:23;100069.97;;;12.94;54.27
4570;BME280;2297;51.442;6.996;2023-03-19T08:32:49;100072.13;;;13.08;53.66
4570;BME280;2297;51.442;6.996;2023-03-19T08:35:16;100070.28;;;12.85;54.54
4570;BME280;2297;51.442;6.996;2023-03-19T08:37:43;100071.28;;;13.08;53.99
4570;BME280;2297;51.442;6.996;2023-03-19T08:40:10;100071.44;;;13.03;53.76
4570;BME280;2297;51.442;6.996;2023-03-19T08:42:39;100078.41;;;13.06;53.84
4570;BME280;2297;51.442;6.996;2023-03-19T08:45:07;100077.75;;;12.99;54.13
4570;BME280;2297;51.442;6.996;2023-03-19T08:47:34;100080.38;;;13.01;54.23
4570;BME280;2297;51.442;6.996;2023-03-19T08:50:01;100077.97;;;12.93;54.28
4570;BME280;2297;51.442;6.996;2023-03-19T08:52:27;100076.44;;;13.11;53.78
4570;BME280;2297;51.442;6.996;2023-03-19T08:54:54;100083.47;;;13.39;53.40
4570;BME280;2297;51.442;6.996;2023-03-19T08:57:21;100088.72;;;13.40;53.58
4570;BME280;2297;51.442;6.996;2023-03-19T08:59:51;100082.63;;;13.62;52.90
4570;BME280;2297;51.442;6.996;2023-03-19T09:02:18;100085.34;;;13.60;52.89
4570;BME280;2297;51.442;6.996;2023-03-19T09:04:44;100078.00;;;13.91;52.29
4570;BME280;2297;51.442;6.996;2023-03-19T09:07:12;100077.59;;;14.02;51.77
4570;BME280;2297;51.442;6.996;2023-03-19T09:09:40;100080.59;;;14.14;51.33
4570;BME280;2297;51.442;6.996;2023-03-19T09:12:09;100085.16;;;13.89;51.77
4570;BME280;2297;51.442;6.996;2023-03-19T09:14:36;100081.47;;;13.93;52.13
4570;BME280;2297;51.442;6.996;2023-03-19T09:17:05;100081.34;;;14.18;51.26
4570;BME280;2297;51.442;6.996;2023-03-19T09:19:32;100078.03;;;13.89;51.41
4570;BME280;2297;51.442;6.996;2023-03-19T09:21:59;100080.59;;;14.14;50.61
4570;BME280;2297;51.442;6.996;2023-03-19T09:24:26;100072.75;;;14.35;50.33
4570;BME280;2297;51.442;6.996;2023-03-19T09:26:52;100073.75;;;14.55;49.98
4570;BME280;2297;51.442;6.996;2023-03-19T09:29:19;100071.38;;;14.69;49.36
4570;BME280;2297;51.442;6.996;2023-03-19T09:31:46;100082.84;;;14.70;48.88
4570;BME280;2297;51.442;6.996;2023-03-19T09:34:14;100078.53;;;14.67;48.87
4570;BME280;2297;51.442;6.996;2023-03-19T09:36:41;100082.38;;;14.60;48.64
4570;BME280;2297;51.442;6.996;2023-03-19T09:39:07;100090.75;;;14.71;49.26
4570;BME280;2297;51.442;6.996;2023-03-19T09:41:39;100094.00;;;14.57;49.02
4570;BME280;2297;51.442;6.996;2023-03-19T09:44:12;100088.25;;;14.68;48.41
4570;BME280;2297;51.442;6.996;2023-03-19T09:46:42;100089.91;;;14.49;49.12
4570;BME280;2297;51.442;6.996;2023-03-19T09:49:20;100097.44;;;14.82;48.12
4570;BME280;2297;51.442;6.996;2023-03-19T09:51:50;100093.56;;;14.68;48.72
4570;BME280;2297;51.442;6.996;2023-03-19T09:54:25;100102.31;;;14.70;48.39
4570;BME280;2297;51.442;6.996;2023-03-19T09:56:52;100104.22;;;14.89;48.08
4570;BME280;2297;51.442;6.996;2023-03-19T09:59:21;100105.50;;;14.58;48.89
4570;BME280;2297;51.442;6.996;2023-03-19T10:01:52;100109.44;;;14.47;48.68
4570;BME280;2297;51.442;6.996;2023-03-19T10:04:40;100108.97;;;14.60;48.83
4570;BME280;2297;51.442;6.996;2023-03-19T10:07:18;100110.19;;;14.29;49.10
4570;BME280;2297;51.442;6.996;2023-03-19T10:09:57;100106.19;;;14.17;49.82
4570;BME280;2297;51.442;6.996;2023-03-19T10:12:41;100117.34;;;14.27;49.74
4570;BME280;2297;51.442;6.996;2023-03-19T10:15:20;100116.06;;;14.13;50.38
4570;BME280;2297;51.442;6.996;2023-03-19T10:17:59;100120.84;;;14.04;50.74
4570;BME280;2297;51.442;6.996;2023-03-19T10:20:37;100120.00;;;14.03;50.96
4570;BME280;2297;51.442;6.996;2023-03-19T10:26:03;100116.06;;;14.37;50.13
4570;BME280;2297;51.442;6.996;2023-03-19T10:28:31;100117.91;;;14.35;50.30
4570;BME280;2297;51.442;6.996;2023-03-19T10:31:06;100123.72;;;14.45;50.06
4570;BME280;2297;51.442;6.996;2023-03-19T10:33:42;100113.03;;;14.24;50.56
4570;BME280;2297;51.442;6.996;2023-03-19T10:36:11;100125.16;;;14.54;49.58
4570;BME280;2297;51.442;6.996;2023-03-19T10:38:39;100122.56;;;14.74;49.01
4570;BME280;2297;51.442;6.996;2023-03-19T10:41:19;100123.69;;;14.46;49.56
4570;BME280;2297;51.442;6.996;2023-03-19T10:43:52;100128.31;;;13.94;50.59
4570;BME280;2297;51.442;6.996;2023-03-19T10:46:20;100122.41;;;14.33;49.81
4570;BME280;2297;51.442;6.996;2023-03-19T10:48:47;100130.00;;;13.96;50.58
4570;BME280;2297;51.442;6.996;2023-03-19T10:51:16;100130.59;;;14.51;49.30
4570;BME280;2297;51.442;6.996;2023-03-19T10:53:46;100134.84;;;14.55;49.20
4570;BME280;2297;51.442;6.996;2023-03-19T10:56:18;100133.56;;;14.65;49.03
4570;BME280;2297;51.442;6.996;2023-03-19T10:58:56;100135.41;;;14.63;48.81
4570;BME280;2297;51.442;6.996;2023-03-19T11:01:27;100137.88;;;14.68;49.29
4570;BME280;2297;51.442;6.996;2023-03-19T11:03:55;100133.53;;;14.21;50.53
4570;BME280;2297;51.442;6.996;2023-03-19T11:06:25;100148.25;;;14.52;49.89
4570;BME280;2297;51.442;6.996;2023-03-19T11:08:55;100146.72;;;14.22;52.38
4570;BME280;2297;51.442;6.996;2023-03-19T11:11:23;100150.66;;;14.12;53.94
4570;BME280;2297;51.442;6.996;2023-03-19T11:13:51;100159.72;;;14.06;54.47
4570;BME280;2297;51.442;6.996;2023-03-19T11:16:18;100152.31;;;14.38;54.21
4570;BME280;2297;51.442;6.996;2023-03-19T11:18:47;100157.94;;;14.53;55.31
4570;BME280;2297;51.442;6.996;2023-03-19T11:21:22;100167.31;;;14.16;55.80
4570;BME280;2297;51.442;6.996;2023-03-19T11:23:51;100167.31;;;14.16;56.05
4570;BME280;2297;51.442;6.996;2023-03-19T11:26:19;100167.13;;;14.22;56.33
4570;BME280;2297;51.442;6.996;2023-03-19T11:28:49;100165.06;;;14.05;56.59
4570;BME280;2297;51.442;6.996;2023-03-19T11:31:21;100163.19;;;14.08;56.62
4570;BME280;2297;51.442;6.996;2023-03-19T11:34:06;100156.69;;;14.16;55.36
4570;BME280;2297;51.442;6.996;2023-03-19T11:36:40;100156.38;;;14.25;54.71
4570;BME280;2297;51.442;6.996;2023-03-19T11:39:20;100151.31;;;14.19;54.79
4570;BME280;2297;51.442;6.996;2023-03-19T11:44:51;100152.19;;;14.19;55.54
4570;BME280;2297;51.442;6.996;2023-03-19T11:47:26;100149.91;;;14.32;54.80
4570;BME280;2297;51.442;6.996;2023-03-19T11:50:13;100149.13;;;14.52;54.43
4570;BME280;2297;51.442;6.996;2023-03-19T11:52:55;100146.16;;;14.60;54.45
4570;BME280;2297;51.442;6.996;2023-03-19T11:55:31;100139.28;;;14.76;54.63
4570;BME280;2297;51.442;6.996;2023-03-19T11:58:16;100135.31;;;14.87;54.20
4570;BME280;2297;51.442;6.996;2023-03-19T12:00:49;100138.34;;;15.00;54.14
4570;BME280;2297;51.442;6.996;2023-03-19T12:03:48;100139.13;;;15.02;53.62
4570;BME280;2297;51.442;6.996;2023-03-19T12:06:31;100134.78;;;15.21;53.29
4570;BME280;2297;51.442;6.996;2023-03-19T12:09:02;100138.31;;;15.22;53.15
4570;BME280;2297;51.442;6.996;2023-03-19T12:11:36;100146.09;;;15.26;53.32
4570;BME280;2297;51.442;6.996;2023-03-19T12:14:19;100141.97;;;15.40;52.61
4570;BME280;2297;51.442;6.996;2023-03-19T12:17:01;100138.25;;;15.44;52.88
4570;BME280;2297;51.442;6.996;2023-03-19T12:20:02;100132.84;;;15.66;53.46
4570;BME280;2297;51.442;6.996;2023-03-19T12:22:41;100135.72;;;16.01;52.05
4570;BME280;2297;51.442;6.996;2023-03-19T12:25:29;100133.91;;;16.21;51.78
4570;BME280;2297;51.442;6.996;2023-03-19T12:28:08;100126.56;;;16.26;51.46
4570;BME280;2297;51.442;6.996;2023-03-19T12:30:41;100130.56;;;16.35;51.12
4570;BME280;2297;51.442;6.996;2023-03-19T12:33:24;100138.88;;;16.09;50.62
4570;BME280;2297;51.442;6.996;2023-03-19T12:35:57;100141.69;;;16.06;49.65
4570;BME280;2297;51.442;6.996;2023-03-19T12:38:30;100140.00;;;15.64;51.04
4570;BME280;2297;51.442;6.996;2023-03-19T12:41:02;100147.47;;;15.76;51.09
4570;BME280;2297;51.442;6.996;2023-03-19T12:43:36;100143.91;;;15.57;52.07
4570;BME280;2297;51.442;6.996;2023-03-19T12:46:07;100146.25;;;15.84;52.44
4570;BME280;2297;51.442;6.996;2023-03-19T12:48:40;100147.97;;;15.85;52.74
4570;BME280;2297;51.442;6.996;2023-03-19T12:51:11;100144.66;;;15.79;53.30
4570;BME280;2297;51.442;6.996;2023-03-19T12:53:45;100141.84;;;15.83;53.32
4570;BME280;2297;51.442;6.996;2023-03-19T12:56:17;100150.00;;;15.99;52.83
4570;BME280;2297;51.442;6.996;2023-03-19T12:58:53;100147.16;;;15.63;52.27
4570;BME280;2297;51.442;6.996;2023-03-19T13:01:25;100146.66;;;15.54;52.44
4570;BME280;2297;51.442;6.996;2023-03-19T13:03:55;100147.88;;;15.67;51.87
4570;BME280;2297;51.442;6.996;2023-03-19T13:06:27;100154.00;;;15.88;52.19
4570;BME280;2297;51.442;6.996;2023-03-19T13:09:03;100146.59;;;16.16;51.41
4570;BME280;2297;51.442;6.996;2023-03-19T13:11:35;100150.72;;;16.23;50.94
4570;BME280;2297;51.442;6.996;2023-03-19T13:14:14;100147.00;;;16.25;51.51
4570;BME280;2297;51.442;6.996;2023-03-19T13:16:47;100155.03;;;15.86;52.02
4570;BME280;2297;51.442;6.996;2023-03-19T13:19:20;100149.94;;;16.00;52.51
4570;BME280;2297;51.442;6.996;2023-03-19T13:21:52;100148.09;;;15.82;51.47
4570;BME280;2297;51.442;6.996;2023-03-19T13:24:23;100148.25;;;15.78;51.55
4570;BME280;2297;51.442;6.996;2023-03-19T13:26:51;100150.75;;;16.02;50.60
4570;BME280;2297;51.442;6.996;2023-03-19T13:29:22;100141.84;;;16.03;50.84
4570;BME280;2297;51.442;6.996;2023-03-19T13:31:50;100142.78;;;15.82;51.03
4570;BME280;2297;51.442;6.996;2023-03-19T13:34:20;100142.78;;;15.82;50.74